createdAt,value
2023-05-08T00:00:10.089Z,231.95
2023-05-08T00:01:09.919Z,234.50
2023-05-08T00:02:09.982Z,234.81
2023-05-08T00:03:10.144Z,228.92
2023-05-08T00:04:10.191Z,229.89
2023-05-08T00:05:10.042Z,227.90
2023-05-08T00:06:10.124Z,221.80
2023-05-08T00:07:10.141Z,226.13
2023-05-08T00:08:10.164Z,232.25
2023-05-08T00:09:10.199Z,238.57
2023-05-08T00:10:10.348Z,243.93
2023-05-08T00:11:10.257Z,242.50
2023-05-08T00:12:10.265Z,239.56
2023-05-08T00:13:10.327Z,234.07
2023-05-08T00:14:10.357Z,235.28
2023-05-08T00:15:10.444Z,230.98
2023-05-08T00:16:10.519Z,229.24
2023-05-08T00:17:10.504Z,233.41
2023-05-08T00:18:10.548Z,242.39
2023-05-08T00:19:10.604Z,236.24
2023-05-08T00:20:10.831Z,224.38
2023-05-08T00:21:10.660Z,223.48
2023-05-08T00:22:10.712Z,227.77
2023-05-08T00:23:10.747Z,231.01
2023-05-08T00:24:10.783Z,234.13
2023-05-08T00:25:10.800Z,238.39
2023-05-08T00:26:10.864Z,237.68
2023-05-08T00:27:10.877Z,245.41
2023-05-08T00:28:10.920Z,250.00
2023-05-08T00:29:10.946Z,239.55
2023-05-08T00:30:11.214Z,232.62
2023-05-08T00:31:11.024Z,229.38
2023-05-08T00:32:11.070Z,233.34
2023-05-08T00:33:11.121Z,234.15
2023-05-08T00:34:11.081Z,230.46
2023-05-08T00:35:11.120Z,224.72
2023-05-08T00:36:11.177Z,222.83
2023-05-08T00:37:11.195Z,225.27
2023-05-08T00:38:11.256Z,231.58
2023-05-08T00:39:11.244Z,227.26
2023-05-08T00:40:11.536Z,227.72
2023-05-08T00:41:11.299Z,231.38
2023-05-08T00:42:11.338Z,233.22
2023-05-08T00:43:11.323Z,234.48
2023-05-08T00:44:11.340Z,233.52
2023-05-08T00:45:11.387Z,232.82
2023-05-08T00:46:11.431Z,228.01
2023-05-08T00:47:11.411Z,227.44
2023-05-08T00:48:11.470Z,231.16
2023-05-08T00:49:11.492Z,238.37
2023-05-08T00:50:11.744Z,244.09
2023-05-08T00:51:11.550Z,241.95
2023-05-08T00:52:11.581Z,237.24
2023-05-08T00:53:11.576Z,233.50
2023-05-08T00:54:11.615Z,235.01
2023-05-08T00:55:11.656Z,232.16
2023-05-08T00:56:11.708Z,230.64
2023-05-08T00:57:11.750Z,233.04
2023-05-08T00:58:11.806Z,233.84
2023-05-08T00:59:11.796Z,231.44
2023-05-08T01:00:12.088Z,229.91
2023-05-08T01:01:11.972Z,229.65
2023-05-08T01:02:11.920Z,231.10
2023-05-08T01:03:12.124Z,231.39
2023-05-08T01:04:11.931Z,230.73
2023-05-08T01:05:11.965Z,230.31
2023-05-08T01:06:12.042Z,232.42
2023-05-08T01:07:12.038Z,235.24
2023-05-08T01:08:12.091Z,237.14
2023-05-08T01:09:12.133Z,238.62
2023-05-08T01:10:12.367Z,240.18
2023-05-08T01:11:12.153Z,242.37
2023-05-08T01:12:12.191Z,241.38
2023-05-08T01:13:12.286Z,241.89
2023-05-08T01:14:12.227Z,238.34
2023-05-08T01:15:12.305Z,231.56
2023-05-08T01:16:12.389Z,230.70
2023-05-08T01:17:12.364Z,234.62
2023-05-08T01:18:12.385Z,237.94
2023-05-08T01:19:12.427Z,241.75
2023-05-08T01:20:12.840Z,247.01
2023-05-08T01:21:12.509Z,250.14
2023-05-08T01:22:12.553Z,250.19
2023-05-08T01:23:12.610Z,250.01
2023-05-08T01:24:12.631Z,250.79
2023-05-08T01:25:12.672Z,248.48
2023-05-08T01:26:12.716Z,236.37
2023-05-08T01:27:12.777Z,225.80
2023-05-08T01:28:12.764Z,222.86
2023-05-08T01:29:12.819Z,231.54
2023-05-08T01:30:13.004Z,236.88
2023-05-08T01:31:12.884Z,238.05
2023-05-08T01:32:12.927Z,231.14
2023-05-08T01:33:12.969Z,221.47
2023-05-08T01:34:12.928Z,214.33
2023-05-08T01:35:12.969Z,209.72
2023-05-08T01:36:13.015Z,210.33
2023-05-08T01:37:13.016Z,216.28
2023-05-08T01:38:13.063Z,219.73
2023-05-08T01:39:13.093Z,221.19
2023-05-08T01:40:13.476Z,224.07
2023-05-08T01:41:13.186Z,225.69
2023-05-08T01:42:13.231Z,226.90
2023-05-08T01:43:13.227Z,224.90
2023-05-08T01:44:13.252Z,218.45
2023-05-08T01:45:13.285Z,217.74
2023-05-08T01:46:13.330Z,217.73
2023-05-08T01:47:13.384Z,217.34
2023-05-08T01:48:13.369Z,218.13
2023-05-08T01:49:13.446Z,217.93
2023-05-08T01:50:13.645Z,217.21
2023-05-08T01:51:13.422Z,219.03
2023-05-08T01:52:13.460Z,227.17
2023-05-08T01:53:13.508Z,232.40
2023-05-08T01:54:13.464Z,233.04
2023-05-08T01:55:13.530Z,231.72
2023-05-08T01:56:13.547Z,231.56
2023-05-08T01:57:13.598Z,231.75
2023-05-08T01:58:13.657Z,232.50
2023-05-08T01:59:13.714Z,235.94
2023-05-08T02:00:13.953Z,237.06
2023-05-08T02:01:13.838Z,236.79
2023-05-08T02:02:13.767Z,237.68
2023-05-08T02:03:13.886Z,236.67
2023-05-08T02:04:13.840Z,235.97
2023-05-08T02:05:13.784Z,232.27
2023-05-08T02:06:13.846Z,233.48
2023-05-08T02:07:13.886Z,236.82
2023-05-08T02:08:13.933Z,235.93
2023-05-08T02:09:13.975Z,237.92
2023-05-08T02:10:14.303Z,242.31
2023-05-08T02:11:14.064Z,240.63
2023-05-08T02:12:14.072Z,238.08
2023-05-08T02:13:14.160Z,236.69
2023-05-08T02:14:14.154Z,239.17
2023-05-08T02:15:14.166Z,233.69
2023-05-08T02:16:14.325Z,234.58
2023-05-08T02:17:14.245Z,233.79
2023-05-08T02:18:14.282Z,232.46
2023-05-08T02:19:14.293Z,234.09
2023-05-08T02:20:14.396Z,240.26
2023-05-08T02:21:14.302Z,234.57
2023-05-08T02:22:14.295Z,235.37
2023-05-08T02:23:14.339Z,240.34
2023-05-08T02:24:14.342Z,241.35
2023-05-08T02:25:14.389Z,230.90
2023-05-08T02:26:14.387Z,230.69
2023-05-08T02:27:14.413Z,237.32
2023-05-08T02:28:14.456Z,240.85
2023-05-08T02:29:14.518Z,239.51
2023-05-08T02:30:14.796Z,236.72
2023-05-08T02:31:14.599Z,228.04
2023-05-08T02:32:14.767Z,224.63
2023-05-08T02:33:14.703Z,223.32
2023-05-08T02:34:14.692Z,226.02
2023-05-08T02:35:14.721Z,224.84
2023-05-08T02:36:14.757Z,227.36
2023-05-08T02:37:14.806Z,229.33
2023-05-08T02:38:14.852Z,232.03
2023-05-08T02:39:14.941Z,234.00
2023-05-08T02:40:15.102Z,234.97
2023-05-08T02:41:14.958Z,237.65
2023-05-08T02:42:15.006Z,240.94
2023-05-08T02:43:15.002Z,243.05
2023-05-08T02:44:15.004Z,244.30
2023-05-08T02:45:15.035Z,242.44
2023-05-08T02:46:15.138Z,244.07
2023-05-08T02:47:15.086Z,248.53
2023-05-08T02:48:15.095Z,246.32
2023-05-08T02:49:15.150Z,240.86
2023-05-08T02:50:15.189Z,238.92
2023-05-08T02:51:15.207Z,239.72
2023-05-08T02:52:15.290Z,241.99
2023-05-08T02:53:15.301Z,240.41
2023-05-08T02:54:15.381Z,237.58
2023-05-08T02:55:15.424Z,235.36
2023-05-08T02:56:15.451Z,238.91
2023-05-08T02:57:15.513Z,238.02
2023-05-08T02:58:15.531Z,237.28
2023-05-08T02:59:15.584Z,233.35
2023-05-08T03:00:15.588Z,226.61
2023-05-08T03:01:15.607Z,228.15
2023-05-08T03:02:15.742Z,232.31
2023-05-08T03:03:15.894Z,236.07
2023-05-08T03:04:15.750Z,238.10
2023-05-08T03:05:15.807Z,240.78
2023-05-08T03:06:15.837Z,243.32
2023-05-08T03:07:15.824Z,243.21
2023-05-08T03:08:15.884Z,223.05
2023-05-08T03:09:15.912Z,214.96
2023-05-08T03:10:16.002Z,220.86
2023-05-08T03:11:16.045Z,222.62
2023-05-08T03:12:16.071Z,225.15
2023-05-08T03:13:16.108Z,223.54
2023-05-08T03:14:16.147Z,222.54
2023-05-08T03:15:16.120Z,218.69
2023-05-08T03:16:16.219Z,211.72
2023-05-08T03:17:16.174Z,214.37
2023-05-08T03:18:16.189Z,218.46
2023-05-08T03:19:16.203Z,222.27
2023-05-08T03:20:16.226Z,227.92
2023-05-08T03:21:16.266Z,226.18
2023-05-08T03:22:16.314Z,227.52
2023-05-08T03:23:16.387Z,238.89
2023-05-08T03:24:16.309Z,244.95
2023-05-08T03:25:16.325Z,245.71
2023-05-08T03:26:16.375Z,246.40
2023-05-08T03:27:16.441Z,237.55
2023-05-08T03:28:16.463Z,230.79
2023-05-08T03:29:16.530Z,229.71
2023-05-08T03:30:16.528Z,232.49
2023-05-08T03:31:16.600Z,234.87
2023-05-08T03:32:16.660Z,232.72
2023-05-08T03:33:16.667Z,236.11
2023-05-08T03:34:16.738Z,241.15
2023-05-08T03:35:16.716Z,236.15
2023-05-08T03:36:16.767Z,229.46
2023-05-08T03:37:16.770Z,227.93
2023-05-08T03:38:16.783Z,229.41
2023-05-08T03:39:16.801Z,234.51
2023-05-08T03:40:16.845Z,234.69
2023-05-08T03:41:16.844Z,243.43
2023-05-08T03:42:16.868Z,250.83
2023-05-08T03:43:16.924Z,252.09
2023-05-08T03:44:16.924Z,249.60
2023-05-08T03:45:16.944Z,250.00
2023-05-08T03:46:17.003Z,250.00
2023-05-08T03:47:17.047Z,243.75
2023-05-08T03:48:17.074Z,237.89
2023-05-08T03:49:17.111Z,236.68
2023-05-08T03:50:17.107Z,231.13
2023-05-08T03:51:17.133Z,228.01
2023-05-08T03:52:17.136Z,230.53
2023-05-08T03:53:17.186Z,232.99
2023-05-08T03:54:17.187Z,233.17
2023-05-08T03:55:17.166Z,237.41
2023-05-08T03:56:17.209Z,243.25
2023-05-08T03:57:17.216Z,242.03
2023-05-08T03:58:17.251Z,236.47
2023-05-08T03:59:17.298Z,233.45
2023-05-08T04:00:17.286Z,223.90
2023-05-08T04:01:17.299Z,222.36
2023-05-08T04:02:17.389Z,226.43
2023-05-08T04:03:17.458Z,233.86
2023-05-08T04:04:17.481Z,240.84
2023-05-08T04:05:17.418Z,242.72
2023-05-08T04:06:17.446Z,240.88
2023-05-08T04:07:17.486Z,228.34
2023-05-08T04:08:17.496Z,219.37
2023-05-08T04:09:17.461Z,217.91
2023-05-08T04:10:17.504Z,215.61
2023-05-08T04:11:17.517Z,221.11
2023-05-08T04:12:17.552Z,235.96
2023-05-08T04:13:17.586Z,253.71
2023-05-08T04:14:17.555Z,257.58
2023-05-08T04:15:17.615Z,258.21
2023-05-08T04:16:17.661Z,256.54
2023-05-08T04:17:17.641Z,248.64
2023-05-08T04:18:17.625Z,241.28
2023-05-08T04:19:17.689Z,230.80
2023-05-08T04:20:17.689Z,232.66
2023-05-08T04:21:17.747Z,237.06
2023-05-08T04:22:17.855Z,240.47
2023-05-08T04:23:17.847Z,244.59
2023-05-08T04:24:17.876Z,241.41
2023-05-08T04:25:17.914Z,238.75
2023-05-08T04:26:17.959Z,244.96
2023-05-08T04:27:17.981Z,246.77
2023-05-08T04:28:17.998Z,250.00
2023-05-08T04:29:18.035Z,248.92
2023-05-08T04:30:18.066Z,230.34
2023-05-08T04:31:18.192Z,228.75
2023-05-08T04:32:18.260Z,236.15
2023-05-08T04:33:18.249Z,239.87
2023-05-08T04:34:18.234Z,245.43
2023-05-08T04:35:18.279Z,245.23
2023-05-08T04:36:18.288Z,248.13
2023-05-08T04:37:18.320Z,250.84
2023-05-08T04:38:18.361Z,254.32
2023-05-08T04:39:18.379Z,247.97
2023-05-08T04:40:18.416Z,250.44
2023-05-08T04:41:18.480Z,255.88
2023-05-08T04:42:18.496Z,254.18
2023-05-08T04:43:18.570Z,252.66
2023-05-08T04:44:18.654Z,251.58
2023-05-08T04:45:18.675Z,246.34
2023-05-08T04:46:18.748Z,236.91
2023-05-08T04:47:18.718Z,236.66
2023-05-08T04:48:18.773Z,232.12
2023-05-08T04:49:18.771Z,221.93
2023-05-08T04:50:18.774Z,204.14
2023-05-08T04:51:18.893Z,189.73
2023-05-08T04:52:18.918Z,190.76
2023-05-08T04:53:18.909Z,184.41
2023-05-08T04:54:18.962Z,188.77
2023-05-08T04:55:18.953Z,200.87
2023-05-08T04:56:19.032Z,191.05
2023-05-08T04:57:19.045Z,186.44
2023-05-08T04:58:19.103Z,186.28
2023-05-08T04:59:19.115Z,195.03
2023-05-08T05:00:19.153Z,205.34
2023-05-08T05:01:19.167Z,197.80
2023-05-08T05:02:19.203Z,192.33
2023-05-08T05:03:19.249Z,193.83
2023-05-08T05:04:19.203Z,192.45
2023-05-08T05:05:19.221Z,182.01
2023-05-08T05:06:19.252Z,181.08
2023-05-08T05:07:19.293Z,183.29
2023-05-08T05:08:19.319Z,182.13
2023-05-08T05:09:19.331Z,186.99
2023-05-08T05:10:19.382Z,191.16
2023-05-08T05:11:19.399Z,198.82
2023-05-08T05:12:19.396Z,201.11
2023-05-08T05:13:19.492Z,201.41
2023-05-08T05:14:19.500Z,201.39
2023-05-08T05:15:19.468Z,205.24
2023-05-08T05:16:19.614Z,202.42
2023-05-08T05:17:19.543Z,204.22
2023-05-08T05:18:19.564Z,202.87
2023-05-08T05:19:19.629Z,205.37
2023-05-08T05:20:19.658Z,208.54
2023-05-08T05:21:19.686Z,208.09
2023-05-08T05:22:19.740Z,210.02
2023-05-08T05:23:19.762Z,215.64
2023-05-08T05:24:19.823Z,218.34
2023-05-08T05:25:19.860Z,220.16
2023-05-08T05:26:19.886Z,217.78
2023-05-08T05:27:21.341Z,215.78
2023-05-08T05:28:19.913Z,218.57
2023-05-08T05:29:19.941Z,212.31
2023-05-08T05:30:20.013Z,212.02
2023-05-08T05:31:20.105Z,212.30
2023-05-08T05:32:20.076Z,209.43
2023-05-08T05:33:20.101Z,203.11
2023-05-08T05:34:20.113Z,204.28
2023-05-08T05:35:20.124Z,205.64
2023-05-08T05:36:20.157Z,204.36
2023-05-08T05:37:20.212Z,202.84
2023-05-08T05:38:20.197Z,202.68
2023-05-08T05:39:20.254Z,205.42
2023-05-08T05:40:20.294Z,205.50
2023-05-08T05:41:20.321Z,208.71
2023-05-08T05:42:20.344Z,214.05
2023-05-08T05:43:20.381Z,218.19
2023-05-08T05:44:20.406Z,222.45
2023-05-08T05:45:20.452Z,223.56
2023-05-08T05:46:20.480Z,226.87
2023-05-08T05:47:21.069Z,233.54
2023-05-08T05:48:20.576Z,232.59
2023-05-08T05:49:20.524Z,230.11
2023-05-08T05:50:20.590Z,222.03
2023-05-08T05:51:20.594Z,224.59
2023-05-08T05:52:20.628Z,231.17
2023-05-08T05:53:20.666Z,232.29
2023-05-08T05:54:20.715Z,218.07
2023-05-08T05:55:20.772Z,216.33
2023-05-08T05:56:20.799Z,219.12
2023-05-08T05:57:20.985Z,224.58
2023-05-08T05:58:20.769Z,226.12
2023-05-08T05:59:20.804Z,227.51
2023-05-08T06:00:20.862Z,231.00
2023-05-08T06:01:20.868Z,233.26
2023-05-08T06:02:20.921Z,230.79
2023-05-08T06:03:20.966Z,229.04
2023-05-08T06:04:20.930Z,228.57
2023-05-08T06:05:20.976Z,226.45
2023-05-08T06:06:20.993Z,227.79
2023-05-08T06:07:21.050Z,226.90
2023-05-08T06:08:21.528Z,225.78
2023-05-08T06:09:21.047Z,224.00
2023-05-08T06:10:21.078Z,224.66
2023-05-08T06:11:21.130Z,224.05
2023-05-08T06:12:21.173Z,213.91
2023-05-08T06:13:21.304Z,212.73
2023-05-08T06:14:21.196Z,218.30
2023-05-08T06:15:21.257Z,221.50
2023-05-08T06:16:21.291Z,218.54
2023-05-08T06:17:21.306Z,206.88
2023-05-08T06:18:21.348Z,205.80
2023-05-08T06:19:21.408Z,211.41
2023-05-08T06:20:21.404Z,210.76
2023-05-08T06:21:21.450Z,208.48
2023-05-08T06:22:21.428Z,204.07
2023-05-08T06:23:21.475Z,201.75
2023-05-08T06:24:21.529Z,203.04
2023-05-08T06:25:21.574Z,206.13
2023-05-08T06:27:21.595Z,199.88
2023-05-08T06:28:21.630Z,194.42
2023-05-08T06:29:21.685Z,201.68
2023-05-08T06:30:21.752Z,204.48
2023-05-08T06:31:21.782Z,206.03
2023-05-08T06:32:21.863Z,205.20
2023-05-08T06:33:22.293Z,206.11
2023-05-08T06:34:21.890Z,208.00
2023-05-08T06:35:22.173Z,212.14
2023-05-08T06:36:21.943Z,214.23
2023-05-08T06:37:21.959Z,209.26
2023-05-08T06:38:21.988Z,203.33
2023-05-08T06:39:22.504Z,201.95
2023-05-08T06:40:22.075Z,196.79
2023-05-08T06:41:22.089Z,198.37
2023-05-08T06:42:22.148Z,200.48
2023-05-08T06:43:22.221Z,200.43
2023-05-08T06:44:22.194Z,203.20
2023-05-08T06:45:22.256Z,202.60
2023-05-08T06:46:22.331Z,198.85
2023-05-08T06:47:22.318Z,196.11
2023-05-08T06:48:22.325Z,193.70
2023-05-08T06:49:22.360Z,194.53
2023-05-08T06:50:22.384Z,197.62
2023-05-08T06:51:22.406Z,194.00
2023-05-08T06:52:22.452Z,193.59
2023-05-08T06:53:22.511Z,197.21
2023-05-08T06:54:22.521Z,199.74
2023-05-08T06:55:22.544Z,202.31
2023-05-08T06:56:22.579Z,202.68
2023-05-08T06:57:22.598Z,202.85
2023-05-08T06:58:22.613Z,200.24
2023-05-08T06:59:23.501Z,201.52
2023-05-08T07:00:22.663Z,204.00
2023-05-08T07:01:22.758Z,205.92
2023-05-08T07:02:22.777Z,208.18
2023-05-08T07:03:22.778Z,206.78
2023-05-08T07:04:22.908Z,204.11
2023-05-08T07:05:22.825Z,205.07
2023-05-08T07:06:22.847Z,203.20
2023-05-08T07:07:22.913Z,205.81
2023-05-08T07:08:22.972Z,202.27
2023-05-08T07:09:23.039Z,201.98
2023-05-08T07:10:23.542Z,197.58
2023-05-08T07:11:23.092Z,196.66
2023-05-08T07:12:23.125Z,195.91
2023-05-08T07:13:23.194Z,196.57
2023-05-08T07:14:23.483Z,201.27
2023-05-08T07:15:26.461Z,204.04
2023-05-08T07:16:23.222Z,208.50
2023-05-08T07:17:23.264Z,213.58
2023-05-08T07:18:23.499Z,206.77
2023-05-08T07:19:23.195Z,208.44
2023-05-08T07:20:23.161Z,207.99
2023-05-08T07:21:23.174Z,199.28
2023-05-08T07:22:23.216Z,197.66
2023-05-08T07:23:23.170Z,199.99
2023-05-08T07:24:23.163Z,195.53
2023-05-08T07:25:23.137Z,195.22
2023-05-08T07:26:23.136Z,194.43
2023-05-08T07:27:23.108Z,198.55
2023-05-08T07:28:23.103Z,197.96
2023-05-08T07:29:23.116Z,202.82
2023-05-08T07:30:23.114Z,206.88
2023-05-08T07:31:23.098Z,208.79
2023-05-08T07:32:23.150Z,208.39
2023-05-08T07:33:23.089Z,207.02
2023-05-08T07:34:23.091Z,207.13
2023-05-08T07:35:23.499Z,191.28
2023-05-08T07:36:23.078Z,190.95
2023-05-08T07:37:23.040Z,198.91
2023-05-08T07:38:23.049Z,202.98
2023-05-08T07:39:23.063Z,204.96
2023-05-08T07:40:23.107Z,203.54
2023-05-08T07:41:25.818Z,201.98
2023-05-08T07:42:23.046Z,202.07
2023-05-08T07:43:23.040Z,202.45
2023-05-08T07:44:23.051Z,204.27
2023-05-08T07:45:22.992Z,199.46
2023-05-08T07:46:23.073Z,195.01
2023-05-08T07:47:23.044Z,192.59
2023-05-08T07:48:22.983Z,190.95
2023-05-08T07:49:22.999Z,188.23
2023-05-08T07:50:23.067Z,188.32
2023-05-08T07:51:22.985Z,184.34
2023-05-08T07:52:22.981Z,183.79
2023-05-08T07:53:22.987Z,184.09
2023-05-08T07:54:22.924Z,187.31
2023-05-08T07:55:22.977Z,191.60
2023-05-08T07:56:22.924Z,191.18
2023-05-08T07:57:22.931Z,192.99
2023-05-08T07:58:24.016Z,188.52
2023-05-08T07:59:23.035Z,187.18
2023-05-08T08:00:23.001Z,185.35
2023-05-08T08:01:22.921Z,182.19
2023-05-08T08:02:23.031Z,178.08
2023-05-08T08:03:22.981Z,178.41
2023-05-08T08:04:23.017Z,178.73
2023-05-08T08:05:22.890Z,183.00
2023-05-08T08:06:22.876Z,179.10
2023-05-08T08:07:22.880Z,175.55
2023-05-08T08:08:22.849Z,168.97
2023-05-08T08:09:22.882Z,167.94
2023-05-08T08:10:22.913Z,165.64
2023-05-08T08:11:22.930Z,164.07
2023-05-08T08:12:22.839Z,166.10
2023-05-08T08:13:22.899Z,165.12
2023-05-08T08:14:22.860Z,165.43
2023-05-08T08:15:22.843Z,168.69
2023-05-08T08:16:22.848Z,168.62
2023-05-08T08:17:22.959Z,171.45
2023-05-08T08:18:23.282Z,173.27
2023-05-08T08:19:22.797Z,174.35
2023-05-08T08:20:22.833Z,178.37
2023-05-08T08:21:22.801Z,179.40
2023-05-08T08:22:22.773Z,179.87
2023-05-08T08:23:22.771Z,180.48
2023-05-08T08:24:22.787Z,177.51
2023-05-08T08:25:22.830Z,168.01
2023-05-08T08:26:22.719Z,167.96
2023-05-08T08:27:22.845Z,164.81
2023-05-08T08:28:22.755Z,167.17
2023-05-08T08:29:23.027Z,178.79
2023-05-08T08:30:22.756Z,213.17
2023-05-08T08:31:22.864Z,218.31
2023-05-08T08:32:22.828Z,217.44
2023-05-08T08:33:22.746Z,213.84
2023-05-08T08:34:22.739Z,198.65
2023-05-08T08:35:22.755Z,187.68
2023-05-08T08:36:22.722Z,191.65
2023-05-08T08:37:22.770Z,192.77
2023-05-08T08:38:22.779Z,209.12
2023-05-08T08:39:22.798Z,216.03
2023-05-08T08:40:22.898Z,213.10
2023-05-08T08:41:22.922Z,195.06
2023-05-08T08:42:22.963Z,187.32
2023-05-08T08:43:23.040Z,170.72
2023-05-08T08:44:23.024Z,168.12
2023-05-08T08:45:23.066Z,174.08
2023-05-08T08:46:23.125Z,175.20
2023-05-08T08:47:23.153Z,175.98
2023-05-08T08:48:23.196Z,172.37
2023-05-08T08:49:23.220Z,171.29
2023-05-08T08:50:23.295Z,165.00
2023-05-08T08:51:23.218Z,164.49
2023-05-08T08:52:23.307Z,170.64
2023-05-08T08:53:23.391Z,175.55
2023-05-08T08:54:23.369Z,171.88
2023-05-08T08:55:23.540Z,166.46
2023-05-08T08:56:23.414Z,160.42
2023-05-08T08:57:23.567Z,161.87
2023-05-08T08:58:23.526Z,163.10
2023-05-08T08:59:23.655Z,168.03
2023-05-08T09:00:23.561Z,151.78
2023-05-08T09:01:23.668Z,150.04
2023-05-08T09:02:23.726Z,155.72
2023-05-08T09:03:23.807Z,148.08
2023-05-08T09:04:23.721Z,150.58
2023-05-08T09:05:23.742Z,150.65
2023-05-08T09:06:23.773Z,148.57
2023-05-08T09:07:23.799Z,156.50
2023-05-08T09:08:23.803Z,158.72
2023-05-08T09:09:23.817Z,158.10
2023-05-08T09:10:23.859Z,160.05
2023-05-08T09:11:23.850Z,157.61
2023-05-08T09:12:23.953Z,159.27
2023-05-08T09:13:24.016Z,143.83
2023-05-08T09:14:23.973Z,134.81
2023-05-08T09:15:24.082Z,128.52
2023-05-08T09:16:24.082Z,125.90
2023-05-08T09:17:24.086Z,129.78
2023-05-08T09:18:24.081Z,135.33
2023-05-08T09:19:27.011Z,140.19
2023-05-08T09:20:24.083Z,136.58
2023-05-08T09:21:24.114Z,131.81
2023-05-08T09:22:24.132Z,138.42
2023-05-08T09:23:24.131Z,140.03
2023-05-08T09:24:24.076Z,143.68
2023-05-08T09:25:24.054Z,143.33
2023-05-08T09:26:24.068Z,143.77
2023-05-08T09:27:24.069Z,143.41
2023-05-08T09:28:24.085Z,148.37
2023-05-08T09:29:24.051Z,153.56
2023-05-08T09:30:24.059Z,144.37
2023-05-08T09:31:24.128Z,146.30
2023-05-08T09:32:24.048Z,133.92
2023-05-08T09:33:24.049Z,137.05
2023-05-08T09:34:24.002Z,145.86
2023-05-08T09:35:24.008Z,154.16
2023-05-08T09:36:23.998Z,143.34
2023-05-08T09:37:23.990Z,132.20
2023-05-08T09:38:24.033Z,132.18
2023-05-08T09:39:24.028Z,135.90
2023-05-08T09:40:24.010Z,143.07
2023-05-08T09:41:23.997Z,143.25
2023-05-08T09:42:24.008Z,134.05
2023-05-08T09:43:24.029Z,122.89
2023-05-08T09:44:24.074Z,130.23
2023-05-08T09:45:24.127Z,140.18
2023-05-08T09:46:24.377Z,140.64
2023-05-08T09:47:24.394Z,143.83
2023-05-08T09:48:24.230Z,150.67
2023-05-08T09:49:24.315Z,150.08
2023-05-08T09:50:24.538Z,154.43
2023-05-08T09:51:24.321Z,155.62
2023-05-08T09:52:24.355Z,150.88
2023-05-08T09:53:24.359Z,143.47
2023-05-08T09:54:24.403Z,146.81
2023-05-08T09:55:24.423Z,148.75
2023-05-08T09:56:24.561Z,154.77
2023-05-08T09:57:24.455Z,157.34
2023-05-08T09:58:24.504Z,157.38
2023-05-08T09:59:24.514Z,151.76
2023-05-08T10:00:24.563Z,153.86
2023-05-08T10:01:24.650Z,155.04
2023-05-08T10:02:24.704Z,156.17
2023-05-08T10:03:24.815Z,159.23
2023-05-08T10:04:24.793Z,165.14
2023-05-08T10:05:24.838Z,176.58
2023-05-08T10:06:24.739Z,184.42
2023-05-08T10:07:24.775Z,185.64
2023-05-08T10:08:24.867Z,188.99
2023-05-08T10:09:26.161Z,181.43
2023-05-08T10:10:24.985Z,181.80
2023-05-08T10:11:25.005Z,177.93
2023-05-08T10:12:25.062Z,178.82
2023-05-08T10:13:25.207Z,187.06
2023-05-08T10:14:25.109Z,182.35
2023-05-08T10:15:25.149Z,168.95
2023-05-08T10:16:25.155Z,165.45
2023-05-08T10:17:25.172Z,169.06
2023-05-08T10:18:25.183Z,176.19
2023-05-08T10:19:25.238Z,170.06
2023-05-08T10:20:25.176Z,169.16
2023-05-08T10:21:25.190Z,172.26
2023-05-08T10:22:25.220Z,167.30
2023-05-08T10:23:25.267Z,170.73
2023-05-08T10:24:25.347Z,174.82
2023-05-08T10:25:25.357Z,169.37
2023-05-08T10:26:25.345Z,161.15
2023-05-08T10:27:25.427Z,157.89
2023-05-08T10:28:25.458Z,154.09
2023-05-08T10:29:25.520Z,156.24
2023-05-08T10:30:25.508Z,169.16
2023-05-08T10:31:25.618Z,176.21
2023-05-08T10:32:25.568Z,177.57
2023-05-08T10:33:25.575Z,183.80
2023-05-08T10:34:25.580Z,179.76
2023-05-08T10:35:25.700Z,174.75
2023-05-08T10:36:25.621Z,169.94
2023-05-08T10:37:25.639Z,162.41
2023-05-08T10:38:25.705Z,165.78
2023-05-08T10:39:25.759Z,174.54
2023-05-08T10:40:25.782Z,179.91
2023-05-08T10:41:25.814Z,180.10
2023-05-08T10:42:25.890Z,171.72
2023-05-08T10:43:25.896Z,162.91
2023-05-08T10:44:25.880Z,170.38
2023-05-08T10:45:26.078Z,176.30
2023-05-08T10:46:25.962Z,167.74
2023-05-08T10:47:25.965Z,158.74
2023-05-08T10:48:25.982Z,156.53
2023-05-08T10:49:26.025Z,157.86
2023-05-08T10:50:26.073Z,156.27
2023-05-08T10:51:26.146Z,155.88
2023-05-08T10:52:26.218Z,157.50
2023-05-08T10:53:26.241Z,151.50
2023-05-08T10:54:27.922Z,151.14
2023-05-08T10:55:26.304Z,153.52
2023-05-08T10:56:26.357Z,151.75
2023-05-08T10:57:26.353Z,152.33
2023-05-08T10:58:26.408Z,158.38
2023-05-08T10:59:26.434Z,160.46
2023-05-08T11:00:26.452Z,155.37
2023-05-08T11:01:26.528Z,155.93
2023-05-08T11:02:26.670Z,157.60
2023-05-08T11:03:32.296Z,159.59
2023-05-08T11:04:27.599Z,159.71
2023-05-08T11:05:26.489Z,160.63
2023-05-08T11:06:26.514Z,162.81
2023-05-08T11:07:26.519Z,171.60
2023-05-08T11:08:26.489Z,187.71
2023-05-08T11:09:26.476Z,179.64
2023-05-08T11:10:26.462Z,168.91
2023-05-08T11:11:26.463Z,166.41
2023-05-08T11:12:26.458Z,174.46
2023-05-08T11:13:26.519Z,176.60
2023-05-08T11:14:26.458Z,165.11
2023-05-08T11:15:26.467Z,155.53
2023-05-08T11:16:26.444Z,149.14
2023-05-08T11:17:26.439Z,152.55
2023-05-08T11:18:28.064Z,143.81
2023-05-08T11:19:27.489Z,143.84
2023-05-08T11:20:26.446Z,145.16
2023-05-08T11:21:26.439Z,143.02
2023-05-08T11:22:26.391Z,135.37
2023-05-08T11:23:26.396Z,136.95
2023-05-08T11:24:26.586Z,138.77
2023-05-08T11:25:26.399Z,154.89
2023-05-08T11:26:26.382Z,150.32
2023-05-08T11:27:26.391Z,139.32
2023-05-08T11:28:26.371Z,137.23
2023-05-08T11:29:26.375Z,133.89
2023-05-08T11:30:26.435Z,134.90
2023-05-08T11:31:26.509Z,144.10
2023-05-08T11:32:26.498Z,138.78
2023-05-08T11:33:26.523Z,131.80
2023-05-08T11:34:26.543Z,134.92
2023-05-08T11:35:26.555Z,144.33
2023-05-08T11:36:26.578Z,152.91
2023-05-08T11:37:26.667Z,157.90
2023-05-08T11:38:26.678Z,158.78
2023-05-08T11:39:26.683Z,165.69
2023-05-08T11:40:26.715Z,161.40
2023-05-08T11:41:26.756Z,154.86
2023-05-08T11:42:26.826Z,163.14
2023-05-08T11:43:26.868Z,158.21
2023-05-08T11:44:26.912Z,151.39
2023-05-08T11:45:26.920Z,121.49
2023-05-08T11:46:26.968Z,104.50
2023-05-08T11:47:26.988Z,114.41
2023-05-08T11:48:27.017Z,117.83
2023-05-08T11:49:29.817Z,122.07
2023-05-08T11:50:27.049Z,117.61
2023-05-08T11:51:27.052Z,100.89
2023-05-08T11:52:27.053Z,85.90
2023-05-08T11:53:27.032Z,92.91
2023-05-08T11:54:27.078Z,105.09
2023-05-08T11:55:27.033Z,93.87
2023-05-08T11:56:27.054Z,95.80
2023-05-08T11:57:27.000Z,89.63
2023-05-08T11:58:27.017Z,99.22
2023-05-08T11:59:27.011Z,95.71
2023-05-08T12:00:27.047Z,95.32
2023-05-08T12:01:27.002Z,86.95
2023-05-08T12:02:27.055Z,84.99
2023-05-08T12:03:27.110Z,76.03
2023-05-08T12:04:27.067Z,78.01
2023-05-08T12:05:26.962Z,80.53
2023-05-08T12:06:26.999Z,78.51
2023-05-08T12:07:26.958Z,83.77
2023-05-08T12:08:26.970Z,79.85
2023-05-08T12:09:26.988Z,81.10
2023-05-08T12:10:26.910Z,80.06
2023-05-08T12:11:26.929Z,97.89
2023-05-08T12:12:26.907Z,94.15
2023-05-08T12:13:27.042Z,98.11
2023-05-08T12:14:26.958Z,100.73
2023-05-08T12:15:26.933Z,94.49
2023-05-08T12:16:26.892Z,94.35
2023-05-08T12:17:27.027Z,110.48
2023-05-08T12:18:26.873Z,120.72
2023-05-08T12:19:26.868Z,118.31
2023-05-08T12:20:26.875Z,110.05
2023-05-08T12:21:26.851Z,100.56
2023-05-08T12:22:26.844Z,97.58
2023-05-08T12:23:26.857Z,88.03
2023-05-08T12:24:27.014Z,74.48
2023-05-08T12:25:26.930Z,70.11
2023-05-08T12:26:26.845Z,89.74
2023-05-08T12:27:26.867Z,92.01
2023-05-08T12:28:26.839Z,87.37
2023-05-08T12:29:26.835Z,72.37
2023-05-08T12:30:26.839Z,64.87